sensor_id;sensor_type;location;lat;lon;timestamp;P1;durP1;ratioP1;P2;durP2;ratioP2
40837;SDS011;29632;49.168;9.848;2023-09-07T00:01:29;4.53;;;2.60;;
40837;SDS011;29632;49.168;9.848;2023-09-07T00:03:56;3.77;;;2.57;;
40837;SDS011;29632;49.168;9.848;2023-09-07T00:06:22;3.87;;;2.50;;
40837;SDS011;29632;49.168;9.848;2023-09-07T00:08:47;8.00;;;3.13;;
40837;SDS011;29632;49.168;9.848;2023-09-07T00:11:13;3.17;;;2.37;;
40837;SDS011;29632;49.168;9.848;2023-09-07T00:13:39;6.27;;;3.27;;
40837;SDS011;29632;49.168;9.848;2023-09-07T00:16:05;3.73;;;2.33;;
40837;SDS011;29632;49.168;9.848;2023-09-07T00:18:32;5.37;;;2.87;;
40837;SDS011;29632;49.168;9.848;2023-09-07T00:20:59;4.77;;;2.83;;
40837;SDS011;29632;49.168;9.848;2023-09-07T00:23:25;4.70;;;2.60;;
40837;SDS011;29632;49.168;9.848;2023-09-07T00:25:51;3.80;;;2.63;;
40837;SDS011;29632;49.168;9.848;2023-09-07T00:28:17;4.40;;;3.40;;
40837;SDS011;29632;49.168;9.848;2023-09-07T00:30:43;3.93;;;2.63;;
40837;SDS011;29632;49.168;9.848;2023-09-07T00:33:08;5.30;;;2.90;;
40837;SDS011;29632;49.168;9.848;2023-09-07T00:35:34;5.00;;;2.70;;
40837;SDS011;29632;49.168;9.848;2023-09-07T00:38:00;4.43;;;3.20;;
40837;SDS011;29632;49.168;9.848;2023-09-07T00:40:26;4.77;;;2.80;;
40837;SDS011;29632;49.168;9.848;2023-09-07T00:42:52;3.93;;;3.00;;
40837;SDS011;29632;49.168;9.848;2023-09-07T00:45:19;4.37;;;3.13;;
40837;SDS011;29632;49.168;9.848;2023-09-07T00:47:45;4.77;;;2.90;;
40837;SDS011;29632;49.168;9.848;2023-09-07T00:50:11;4.13;;;2.80;;
40837;SDS011;29632;49.168;9.848;2023-09-07T00:52:39;5.43;;;3.13;;
40837;SDS011;29632;49.168;9.848;2023-09-07T00:55:07;4.93;;;2.73;;
40837;SDS011;29632;49.168;9.848;2023-09-07T00:57:34;4.30;;;2.73;;
40837;SDS011;29632;49.168;9.848;2023-09-07T01:00:02;5.17;;;2.77;;
40837;SDS011;29632;49.168;9.848;2023-09-07T01:02:31;3.40;;;2.50;;
40837;SDS011;29632;49.168;9.848;2023-09-07T01:04:56;6.00;;;3.37;;
40837;SDS011;29632;49.168;9.848;2023-09-07T01:07:29;5.73;;;2.70;;
40837;SDS011;29632;49.168;9.848;2023-09-07T01:09:59;3.60;;;2.50;;
40837;SDS011;29632;49.168;9.848;2023-09-07T01:12:27;3.70;;;2.80;;
40837;SDS011;29632;49.168;9.848;2023-09-07T01:14:53;4.03;;;2.57;;
40837;SDS011;29632;49.168;9.848;2023-09-07T01:17:19;4.77;;;2.50;;
40837;SDS011;29632;49.168;9.848;2023-09-07T01:19:48;5.57;;;2.60;;
40837;SDS011;29632;49.168;9.848;2023-09-07T01:22:15;5.63;;;3.17;;
40837;SDS011;29632;49.168;9.848;2023-09-07T01:24:49;5.60;;;2.60;;
40837;SDS011;29632;49.168;9.848;2023-09-07T01:27:17;4.63;;;3.07;;
40837;SDS011;29632;49.168;9.848;2023-09-07T01:29:43;5.20;;;3.00;;
40837;SDS011;29632;49.168;9.848;2023-09-07T01:32:09;4.40;;;3.17;;
40837;SDS011;29632;49.168;9.848;2023-09-07T01:34:35;4.73;;;3.20;;
40837;SDS011;29632;49.168;9.848;2023-09-07T01:37:03;3.97;;;2.53;;
40837;SDS011;29632;49.168;9.848;2023-09-07T01:39:29;5.23;;;3.10;;
40837;SDS011;29632;49.168;9.848;2023-09-07T01:41:54;5.10;;;3.20;;
40837;SDS011;29632;49.168;9.848;2023-09-07T01:44:20;4.43;;;2.80;;
40837;SDS011;29632;49.168;9.848;2023-09-07T01:46:46;4.47;;;3.23;;
40837;SDS011;29632;49.168;9.848;2023-09-07T01:49:11;4.83;;;2.83;;
40837;SDS011;29632;49.168;9.848;2023-09-07T01:51:37;14.47;;;3.90;;
40837;SDS011;29632;49.168;9.848;2023-09-07T01:54:03;6.13;;;3.37;;
40837;SDS011;29632;49.168;9.848;2023-09-07T01:56:30;4.03;;;3.10;;
40837;SDS011;29632;49.168;9.848;2023-09-07T01:58:55;4.83;;;3.20;;
40837;SDS011;29632;49.168;9.848;2023-09-07T02:01:22;5.07;;;3.47;;
40837;SDS011;29632;49.168;9.848;2023-09-07T02:03:54;5.47;;;3.27;;
40837;SDS011;29632;49.168;9.848;2023-09-07T02:06:20;4.77;;;2.63;;
40837;SDS011;29632;49.168;9.848;2023-09-07T02:08:46;3.83;;;2.50;;
40837;SDS011;29632;49.168;9.848;2023-09-07T02:11:12;4.50;;;2.47;;
40837;SDS011;29632;49.168;9.848;2023-09-07T02:13:37;6.00;;;3.20;;
40837;SDS011;29632;49.168;9.848;2023-09-07T02:16:08;5.55;;;2.90;;
40837;SDS011;29632;49.168;9.848;2023-09-07T02:18:35;4.80;;;2.90;;
40837;SDS011;29632;49.168;9.848;2023-09-07T02:21:03;5.27;;;3.00;;
40837;SDS011;29632;49.168;9.848;2023-09-07T02:23:30;3.90;;;2.60;;
40837;SDS011;29632;49.168;9.848;2023-09-07T02:25:59;4.68;;;2.95;;
40837;SDS011;29632;49.168;9.848;2023-09-07T02:28:25;3.97;;;2.87;;
40837;SDS011;29632;49.168;9.848;2023-09-07T02:30:51;3.97;;;2.73;;
40837;SDS011;29632;49.168;9.848;2023-09-07T02:33:17;4.93;;;3.00;;
40837;SDS011;29632;49.168;9.848;2023-09-07T02:35:43;4.80;;;2.73;;
40837;SDS011;29632;49.168;9.848;2023-09-07T02:38:09;5.33;;;3.67;;
40837;SDS011;29632;49.168;9.848;2023-09-07T02:40:41;5.00;;;2.87;;
40837;SDS011;29632;49.168;9.848;2023-09-07T02:43:07;3.83;;;2.93;;
40837;SDS011;29632;49.168;9.848;2023-09-07T02:45:34;4.33;;;2.80;;
40837;SDS011;29632;49.168;9.848;2023-09-07T02:48:00;5.53;;;3.93;;
40837;SDS011;29632;49.168;9.848;2023-09-07T02:50:26;3.93;;;3.03;;
40837;SDS011;29632;49.168;9.848;2023-09-07T02:52:54;4.97;;;3.47;;
40837;SDS011;29632;49.168;9.848;2023-09-07T02:55:20;4.57;;;3.00;;
40837;SDS011;29632;49.168;9.848;2023-09-07T02:57:45;5.83;;;3.60;;
40837;SDS011;29632;49.168;9.848;2023-09-07T03:00:11;3.90;;;2.87;;
40837;SDS011;29632;49.168;9.848;2023-09-07T03:02:37;4.53;;;3.37;;
40837;SDS011;29632;49.168;9.848;2023-09-07T03:05:03;4.93;;;3.00;;
40837;SDS011;29632;49.168;9.848;2023-09-07T03:07:30;4.97;;;2.90;;
40837;SDS011;29632;49.168;9.848;2023-09-07T03:09:58;5.00;;;3.03;;
40837;SDS011;29632;49.168;9.848;2023-09-07T03:12:25;4.43;;;3.23;;
40837;SDS011;29632;49.168;9.848;2023-09-07T03:14:51;4.87;;;2.97;;
40837;SDS011;29632;49.168;9.848;2023-09-07T03:17:18;3.80;;;3.20;;
40837;SDS011;29632;49.168;9.848;2023-09-07T03:19:45;4.63;;;3.43;;
40837;SDS011;29632;49.168;9.848;2023-09-07T03:22:12;6.80;;;3.33;;
40837;SDS011;29632;49.168;9.848;2023-09-07T03:24:38;5.03;;;3.20;;
40837;SDS011;29632;49.168;9.848;2023-09-07T03:27:04;4.30;;;3.07;;
40837;SDS011;29632;49.168;9.848;2023-09-07T03:29:33;5.90;;;3.20;;
40837;SDS011;29632;49.168;9.848;2023-09-07T03:32:00;5.03;;;3.50;;
40837;SDS011;29632;49.168;9.848;2023-09-07T03:34:26;5.57;;;3.90;;
40837;SDS011;29632;49.168;9.848;2023-09-07T03:36:52;5.83;;;3.63;;
40837;SDS011;29632;49.168;9.848;2023-09-07T03:39:18;9.70;;;3.30;;
40837;SDS011;29632;49.168;9.848;2023-09-07T03:41:46;4.77;;;3.60;;
40837;SDS011;29632;49.168;9.848;2023-09-07T03:44:12;5.63;;;3.80;;
40837;SDS011;29632;49.168;9.848;2023-09-07T03:46:38;6.50;;;4.20;;
40837;SDS011;29632;49.168;9.848;2023-09-07T03:49:03;5.53;;;3.33;;
40837;SDS011;29632;49.168;9.848;2023-09-07T03:51:29;3.90;;;3.00;;
40837;SDS011;29632;49.168;9.848;2023-09-07T03:53:55;5.10;;;3.53;;
40837;SDS011;29632;49.168;9.848;2023-09-07T03:56:21;5.93;;;3.17;;
40837;SDS011;29632;49.168;9.848;2023-09-07T03:58:47;4.23;;;3.30;;
40837;SDS011;29632;49.168;9.848;2023-09-07T04:01:15;6.17;;;3.20;;
40837;SDS011;29632;49.168;9.848;2023-09-07T04:03:41;4.63;;;3.37;;
40837;SDS011;29632;49.168;9.848;2023-09-07T04:06:07;4.50;;;3.43;;
40837;SDS011;29632;49.168;9.848;2023-09-07T04:08:33;5.33;;;4.30;;
40837;SDS011;29632;49.168;9.848;2023-09-07T04:11:02;4.60;;;3.13;;
40837;SDS011;29632;49.168;9.848;2023-09-07T04:13:29;4.93;;;3.53;;
40837;SDS011;29632;49.168;9.848;2023-09-07T04:15:55;5.03;;;3.53;;
40837;SDS011;29632;49.168;9.848;2023-09-07T04:18:21;4.67;;;3.50;;
40837;SDS011;29632;49.168;9.848;2023-09-07T04:20:46;8.20;;;3.70;;
40837;SDS011;29632;49.168;9.848;2023-09-07T04:23:12;7.03;;;4.07;;
40837;SDS011;29632;49.168;9.848;2023-09-07T04:25:38;5.93;;;3.33;;
40837;SDS011;29632;49.168;9.848;2023-09-07T04:28:04;5.07;;;3.67;;
40837;SDS011;29632;49.168;9.848;2023-09-07T04:30:31;4.73;;;3.70;;
40837;SDS011;29632;49.168;9.848;2023-09-07T04:32:58;5.37;;;3.73;;
40837;SDS011;29632;49.168;9.848;2023-09-07T04:35:30;4.80;;;3.73;;
40837;SDS011;29632;49.168;9.848;2023-09-07T04:37:56;5.10;;;3.60;;
40837;SDS011;29632;49.168;9.848;2023-09-07T04:40:23;5.37;;;3.50;;
40837;SDS011;29632;49.168;9.848;2023-09-07T04:42:50;5.63;;;4.20;;
40837;SDS011;29632;49.168;9.848;2023-09-07T04:45:15;5.83;;;3.77;;
40837;SDS011;29632;49.168;9.848;2023-09-07T04:47:42;6.40;;;4.20;;
40837;SDS011;29632;49.168;9.848;2023-09-07T04:50:08;5.27;;;3.77;;
40837;SDS011;29632;49.168;9.848;2023-09-07T04:52:34;5.83;;;3.87;;
40837;SDS011;29632;49.168;9.848;2023-09-07T04:55:01;6.33;;;4.20;;
40837;SDS011;29632;49.168;9.848;2023-09-07T04:57:27;6.40;;;3.53;;
40837;SDS011;29632;49.168;9.848;2023-09-07T04:59:55;8.27;;;3.90;;
40837;SDS011;29632;49.168;9.848;2023-09-07T05:02:21;6.10;;;4.03;;
40837;SDS011;29632;49.168;9.848;2023-09-07T05:04:47;5.77;;;4.03;;
40837;SDS011;29632;49.168;9.848;2023-09-07T05:07:15;6.13;;;4.03;;
40837;SDS011;29632;49.168;9.848;2023-09-07T05:09:40;10.30;;;4.57;;
40837;SDS011;29632;49.168;9.848;2023-09-07T05:12:07;5.50;;;3.70;;
40837;SDS011;29632;49.168;9.848;2023-09-07T05:14:33;5.43;;;3.90;;
40837;SDS011;29632;49.168;9.848;2023-09-07T05:16:59;4.33;;;3.37;;
40837;SDS011;29632;49.168;9.848;2023-09-07T05:19:25;6.57;;;4.17;;
40837;SDS011;29632;49.168;9.848;2023-09-07T05:21:50;5.93;;;4.30;;
40837;SDS011;29632;49.168;9.848;2023-09-07T05:24:16;7.03;;;3.93;;
40837;SDS011;29632;49.168;9.848;2023-09-07T05:26:42;6.03;;;4.00;;
40837;SDS011;29632;49.168;9.848;2023-09-07T05:29:08;5.50;;;3.40;;
40837;SDS011;29632;49.168;9.848;2023-09-07T05:31:36;5.13;;;3.73;;
40837;SDS011;29632;49.168;9.848;2023-09-07T05:34:01;4.60;;;3.20;;
40837;SDS011;29632;49.168;9.848;2023-09-07T05:36:28;5.93;;;3.87;;
40837;SDS011;29632;49.168;9.848;2023-09-07T05:38:54;7.17;;;4.23;;
40837;SDS011;29632;49.168;9.848;2023-09-07T05:41:20;5.67;;;3.90;;
40837;SDS011;29632;49.168;9.848;2023-09-07T05:43:46;4.50;;;3.70;;
40837;SDS011;29632;49.168;9.848;2023-09-07T05:46:11;5.63;;;3.83;;
40837;SDS011;29632;49.168;9.848;2023-09-07T05:48:37;6.13;;;4.00;;
40837;SDS011;29632;49.168;9.848;2023-09-07T05:51:03;5.30;;;3.80;;
40837;SDS011;29632;49.168;9.848;2023-09-07T05:53:29;5.20;;;3.63;;
40837;SDS011;29632;49.168;9.848;2023-09-07T05:55:55;4.57;;;3.30;;
40837;SDS011;29632;49.168;9.848;2023-09-07T05:58:20;5.43;;;3.80;;
40837;SDS011;29632;49.168;9.848;2023-09-07T06:00:46;5.23;;;3.73;;
40837;SDS011;29632;49.168;9.848;2023-09-07T06:03:12;4.43;;;3.30;;
40837;SDS011;29632;49.168;9.848;2023-09-07T06:05:38;4.97;;;3.70;;
40837;SDS011;29632;49.168;9.848;2023-09-07T06:08:04;5.00;;;3.57;;
40837;SDS011;29632;49.168;9.848;2023-09-07T06:10:33;5.77;;;3.87;;
40837;SDS011;29632;49.168;9.848;2023-09-07T06:12:59;6.07;;;3.87;;
40837;SDS011;29632;49.168;9.848;2023-09-07T06:15:25;5.27;;;3.57;;
40837;SDS011;29632;49.168;9.848;2023-09-07T06:17:52;4.87;;;3.47;;
40837;SDS011;29632;49.168;9.848;2023-09-07T06:20:19;6.33;;;3.73;;
40837;SDS011;29632;49.168;9.848;2023-09-07T06:22:44;7.20;;;3.80;;
40837;SDS011;29632;49.168;9.848;2023-09-07T06:25:10;5.90;;;3.83;;
40837;SDS011;29632;49.168;9.848;2023-09-07T06:27:37;5.67;;;3.37;;
40837;SDS011;29632;49.168;9.848;2023-09-07T06:30:05;5.13;;;3.43;;
40837;SDS011;29632;49.168;9.848;2023-09-07T06:32:32;5.10;;;3.50;;
40837;SDS011;29632;49.168;9.848;2023-09-07T06:34:58;4.80;;;3.80;;
40837;SDS011;29632;49.168;9.848;2023-09-07T06:37:24;6.43;;;3.80;;
40837;SDS011;29632;49.168;9.848;2023-09-07T06:39:50;5.80;;;4.27;;
40837;SDS011;29632;49.168;9.848;2023-09-07T06:42:16;6.10;;;4.07;;
40837;SDS011;29632;49.168;9.848;2023-09-07T06:44:42;5.57;;;3.67;;
40837;SDS011;29632;49.168;9.848;2023-09-07T06:47:08;5.40;;;4.07;;
40837;SDS011;29632;49.168;9.848;2023-09-07T06:49:34;4.57;;;3.50;;
40837;SDS011;29632;49.168;9.848;2023-09-07T06:52:00;5.03;;;3.70;;
40837;SDS011;29632;49.168;9.848;2023-09-07T06:54:28;6.07;;;3.80;;
40837;SDS011;29632;49.168;9.848;2023-09-07T06:56:54;5.67;;;3.33;;
40837;SDS011;29632;49.168;9.848;2023-09-07T06:59:19;5.50;;;3.20;;
40837;SDS011;29632;49.168;9.848;2023-09-07T07:01:45;4.93;;;3.77;;
40837;SDS011;29632;49.168;9.848;2023-09-07T07:04:11;5.57;;;3.90;;
40837;SDS011;29632;49.168;9.848;2023-09-07T07:06:36;5.93;;;3.73;;
40837;SDS011;29632;49.168;9.848;2023-09-07T07:09:02;5.80;;;3.47;;
40837;SDS011;29632;49.168;9.848;2023-09-07T07:11:28;5.90;;;3.57;;
40837;SDS011;29632;49.168;9.848;2023-09-07T07:13:54;4.20;;;3.00;;
40837;SDS011;29632;49.168;9.848;2023-09-07T07:16:20;5.87;;;4.20;;
40837;SDS011;29632;49.168;9.848;2023-09-07T07:18:45;6.73;;;3.80;;
40837;SDS011;29632;49.168;9.848;2023-09-07T07:21:11;6.30;;;4.60;;
40837;SDS011;29632;49.168;9.848;2023-09-07T07:23:37;5.87;;;3.67;;
40837;SDS011;29632;49.168;9.848;2023-09-07T07:26:03;5.83;;;4.10;;
40837;SDS011;29632;49.168;9.848;2023-09-07T07:28:28;5.63;;;3.30;;
40837;SDS011;29632;49.168;9.848;2023-09-07T07:30:54;4.67;;;3.50;;
40837;SDS011;29632;49.168;9.848;2023-09-07T07:33:20;6.50;;;3.63;;
40837;SDS011;29632;49.168;9.848;2023-09-07T07:35:45;5.97;;;3.17;;
40837;SDS011;29632;49.168;9.848;2023-09-07T07:38:11;6.47;;;3.90;;
40837;SDS011;29632;49.168;9.848;2023-09-07T07:40:39;4.47;;;3.30;;
40837;SDS011;29632;49.168;9.848;2023-09-07T07:43:05;4.63;;;2.97;;
40837;SDS011;29632;49.168;9.848;2023-09-07T07:45:31;5.57;;;3.20;;
40837;SDS011;29632;49.168;9.848;2023-09-07T07:48:01;3.88;;;2.75;;
40837;SDS011;29632;49.168;9.848;2023-09-07T07:50:30;3.80;;;2.83;;
40837;SDS011;29632;49.168;9.848;2023-09-07T07:52:56;4.27;;;3.00;;
40837;SDS011;29632;49.168;9.848;2023-09-07T07:55:22;6.53;;;3.83;;
40837;SDS011;29632;49.168;9.848;2023-09-07T07:57:48;5.80;;;2.80;;
40837;SDS011;29632;49.168;9.848;2023-09-07T08:00:13;4.03;;;3.00;;
40837;SDS011;29632;49.168;9.848;2023-09-07T08:02:39;3.87;;;3.00;;
40837;SDS011;29632;49.168;9.848;2023-09-07T08:05:05;4.50;;;3.27;;
40837;SDS011;29632;49.168;9.848;2023-09-07T08:07:31;5.00;;;3.27;;
40837;SDS011;29632;49.168;9.848;2023-09-07T08:09:57;4.40;;;2.73;;
40837;SDS011;29632;49.168;9.848;2023-09-07T08:12:23;5.30;;;3.13;;
40837;SDS011;29632;49.168;9.848;2023-09-07T08:14:49;4.27;;;3.10;;
40837;SDS011;29632;49.168;9.848;2023-09-07T08:17:14;4.57;;;2.50;;
40837;SDS011;29632;49.168;9.848;2023-09-07T08:19:40;5.27;;;2.60;;
40837;SDS011;29632;49.168;9.848;2023-09-07T08:22:06;4.15;;;3.00;;
40837;SDS011;29632;49.168;9.848;2023-09-07T08:24:33;3.57;;;2.90;;
40837;SDS011;29632;49.168;9.848;2023-09-07T08:26:59;4.07;;;2.90;;
40837;SDS011;29632;49.168;9.848;2023-09-07T08:29:25;3.58;;;2.70;;
40837;SDS011;29632;49.168;9.848;2023-09-07T08:31:52;5.38;;;2.50;;
40837;SDS011;29632;49.168;9.848;2023-09-07T08:34:19;4.65;;;3.42;;
40837;SDS011;29632;49.168;9.848;2023-09-07T08:36:46;6.50;;;3.20;;
40837;SDS011;29632;49.168;9.848;2023-09-07T08:39:15;4.25;;;2.67;;
40837;SDS011;29632;49.168;9.848;2023-09-07T08:41:44;3.63;;;2.92;;
40837;SDS011;29632;49.168;9.848;2023-09-07T08:44:10;3.35;;;2.53;;
40837;SDS011;29632;49.168;9.848;2023-09-07T08:46:39;3.53;;;2.60;;
40837;SDS011;29632;49.168;9.848;2023-09-07T08:49:06;4.43;;;2.80;;
40837;SDS011;29632;49.168;9.848;2023-09-07T08:51:34;4.70;;;3.10;;
40837;SDS011;29632;49.168;9.848;2023-09-07T08:54:02;5.57;;;3.00;;
40837;SDS011;29632;49.168;9.848;2023-09-07T08:56:29;5.25;;;2.95;;
40837;SDS011;29632;49.168;9.848;2023-09-07T08:58:55;4.15;;;3.17;;
40837;SDS011;29632;49.168;9.848;2023-09-07T09:01:21;6.03;;;3.30;;
40837;SDS011;29632;49.168;9.848;2023-09-07T09:03:48;5.80;;;3.25;;
40837;SDS011;29632;49.168;9.848;2023-09-07T09:06:18;3.55;;;2.78;;
40837;SDS011;29632;49.168;9.848;2023-09-07T09:11:17;5.00;;;2.55;;
40837;SDS011;29632;49.168;9.848;2023-09-07T09:13:44;3.15;;;2.53;;
40837;SDS011;29632;49.168;9.848;2023-09-07T09:16:10;3.17;;;2.65;;
40837;SDS011;29632;49.168;9.848;2023-09-07T09:18:38;4.65;;;3.13;;
40837;SDS011;29632;49.168;9.848;2023-09-07T09:21:13;3.83;;;2.72;;
40837;SDS011;29632;49.168;9.848;2023-09-07T09:23:41;3.65;;;2.67;;
40837;SDS011;29632;49.168;9.848;2023-09-07T09:26:06;3.40;;;2.42;;
40837;SDS011;29632;49.168;9.848;2023-09-07T09:28:32;4.18;;;2.38;;
40837;SDS011;29632;49.168;9.848;2023-09-07T09:31:00;3.38;;;2.55;;
40837;SDS011;29632;49.168;9.848;2023-09-07T09:33:30;8.52;;;2.63;;
40837;SDS011;29632;49.168;9.848;2023-09-07T09:35:57;4.80;;;2.95;;
40837;SDS011;29632;49.168;9.848;2023-09-07T09:38:23;3.15;;;2.53;;
40837;SDS011;29632;49.168;9.848;2023-09-07T09:40:50;3.85;;;2.55;;
40837;SDS011;29632;49.168;9.848;2023-09-07T09:43:17;3.40;;;2.80;;
40837;SDS011;29632;49.168;9.848;2023-09-07T09:45:48;3.83;;;2.88;;
40837;SDS011;29632;49.168;9.848;2023-09-07T09:48:16;4.28;;;2.47;;
40837;SDS011;29632;49.168;9.848;2023-09-07T09:50:43;3.95;;;2.95;;
40837;SDS011;29632;49.168;9.848;2023-09-07T09:53:10;5.00;;;2.60;;
40837;SDS011;29632;49.168;9.848;2023-09-07T09:55:42;4.22;;;2.63;;
40837;SDS011;29632;49.168;9.848;2023-09-07T09:58:08;3.55;;;2.70;;
40837;SDS011;29632;49.168;9.848;2023-09-07T10:00:33;4.05;;;2.80;;
40837;SDS011;29632;49.168;9.848;2023-09-07T10:05:40;3.85;;;2.60;;
40837;SDS011;29632;49.168;9.848;2023-09-07T10:08:11;3.78;;;2.70;;
40837;SDS011;29632;49.168;9.848;2023-09-07T10:10:38;3.95;;;2.40;;
40837;SDS011;29632;49.168;9.848;2023-09-07T10:13:06;4.57;;;2.60;;
40837;SDS011;29632;49.168;9.848;2023-09-07T10:15:32;4.30;;;2.58;;
40837;SDS011;29632;49.168;9.848;2023-09-07T10:18:11;4.15;;;3.03;;
40837;SDS011;29632;49.168;9.848;2023-09-07T10:20:58;3.80;;;2.55;;
40837;SDS011;29632;49.168;9.848;2023-09-07T10:23:34;3.38;;;2.58;;
40837;SDS011;29632;49.168;9.848;2023-09-07T10:26:10;4.63;;;3.00;;
40837;SDS011;29632;49.168;9.848;2023-09-07T10:28:38;4.50;;;3.08;;
40837;SDS011;29632;49.168;9.848;2023-09-07T10:31:17;4.18;;;2.63;;
40837;SDS011;29632;49.168;9.848;2023-09-07T10:33:45;3.78;;;2.58;;
40837;SDS011;29632;49.168;9.848;2023-09-07T10:36:21;3.65;;;2.60;;
40837;SDS011;29632;49.168;9.848;2023-09-07T10:38:51;2.83;;;2.25;;
40837;SDS011;29632;49.168;9.848;2023-09-07T10:41:20;3.85;;;2.30;;
40837;SDS011;29632;49.168;9.848;2023-09-07T10:43:55;4.22;;;2.85;;
40837;SDS011;29632;49.168;9.848;2023-09-07T10:46:22;3.78;;;2.78;;
40837;SDS011;29632;49.168;9.848;2023-09-07T10:48:49;3.05;;;2.70;;
40837;SDS011;29632;49.168;9.848;2023-09-07T10:51:16;3.78;;;2.70;;
40837;SDS011;29632;49.168;9.848;2023-09-07T10:53:43;4.50;;;2.90;;
40837;SDS011;29632;49.168;9.848;2023-09-07T10:56:09;3.33;;;2.55;;
40837;SDS011;29632;49.168;9.848;2023-09-07T10:58:36;3.00;;;2.45;;
40837;SDS011;29632;49.168;9.848;2023-09-07T11:01:04;4.40;;;2.70;;
40837;SDS011;29632;49.168;9.848;2023-09-07T11:03:31;3.42;;;2.45;;
40837;SDS011;29632;49.168;9.848;2023-09-07T11:05:59;2.78;;;1.95;;
40837;SDS011;29632;49.168;9.848;2023-09-07T11:08:33;4.78;;;2.58;;
40837;SDS011;29632;49.168;9.848;2023-09-07T11:11:00;3.85;;;3.20;;
40837;SDS011;29632;49.168;9.848;2023-09-07T11:13:29;3.60;;;2.22;;
40837;SDS011;29632;49.168;9.848;2023-09-07T11:15:56;3.35;;;2.38;;
40837;SDS011;29632;49.168;9.848;2023-09-07T11:18:24;3.80;;;2.90;;
40837;SDS011;29632;49.168;9.848;2023-09-07T11:20:51;3.75;;;2.72;;
40837;SDS011;29632;49.168;9.848;2023-09-07T11:23:19;3.35;;;2.35;;
40837;SDS011;29632;49.168;9.848;2023-09-07T11:25:46;5.72;;;2.47;;
40837;SDS011;29632;49.168;9.848;2023-09-07T11:28:15;4.65;;;2.60;;
40837;SDS011;29632;49.168;9.848;2023-09-07T11:30:53;5.25;;;2.92;;
40837;SDS011;29632;49.168;9.848;2023-09-07T11:33:20;3.85;;;2.72;;
40837;SDS011;29632;49.168;9.848;2023-09-07T11:35:49;2.70;;;2.33;;
40837;SDS011;29632;49.168;9.848;2023-09-07T11:38:16;3.03;;;2.25;;
40837;SDS011;29632;49.168;9.848;2023-09-07T11:40:43;5.05;;;2.45;;
40837;SDS011;29632;49.168;9.848;2023-09-07T11:43:10;4.40;;;3.00;;
40837;SDS011;29632;49.168;9.848;2023-09-07T11:45:37;3.15;;;2.22;;
40837;SDS011;29632;49.168;9.848;2023-09-07T11:48:07;3.10;;;2.35;;
40837;SDS011;29632;49.168;9.848;2023-09-07T11:50:34;2.50;;;2.10;;
40837;SDS011;29632;49.168;9.848;2023-09-07T11:53:00;3.55;;;2.58;;
40837;SDS011;29632;49.168;9.848;2023-09-07T11:55:26;3.97;;;2.25;;
40837;SDS011;29632;49.168;9.848;2023-09-07T11:57:52;8.10;;;3.00;;
40837;SDS011;29632;49.168;9.848;2023-09-07T12:00:18;6.43;;;2.50;;
40837;SDS011;29632;49.168;9.848;2023-09-07T12:02:44;3.72;;;2.65;;
40837;SDS011;29632;49.168;9.848;2023-09-07T12:05:10;4.25;;;2.67;;
40837;SDS011;29632;49.168;9.848;2023-09-07T12:07:39;3.20;;;2.47;;
40837;SDS011;29632;49.168;9.848;2023-09-07T12:10:06;3.65;;;2.58;;
40837;SDS011;29632;49.168;9.848;2023-09-07T12:12:36;3.38;;;2.40;;
40837;SDS011;29632;49.168;9.848;2023-09-07T12:15:02;5.10;;;2.35;;
40837;SDS011;29632;49.168;9.848;2023-09-07T12:17:29;4.03;;;2.63;;
40837;SDS011;29632;49.168;9.848;2023-09-07T12:19:58;4.78;;;2.90;;
40837;SDS011;29632;49.168;9.848;2023-09-07T12:22:25;3.38;;;2.25;;
40837;SDS011;29632;49.168;9.848;2023-09-07T12:24:51;4.95;;;2.85;;
40837;SDS011;29632;49.168;9.848;2023-09-07T12:27:18;4.30;;;2.38;;
40837;SDS011;29632;49.168;9.848;2023-09-07T12:29:44;5.65;;;2.30;;
40837;SDS011;29632;49.168;9.848;2023-09-07T12:32:10;4.07;;;2.65;;
40837;SDS011;29632;49.168;9.848;2023-09-07T12:34:36;5.30;;;2.72;;
40837;SDS011;29632;49.168;9.848;2023-09-07T12:37:02;3.55;;;2.67;;
40837;SDS011;29632;49.168;9.848;2023-09-07T12:39:31;4.60;;;3.30;;
40837;SDS011;29632;49.168;9.848;2023-09-07T12:41:57;3.67;;;2.20;;
40837;SDS011;29632;49.168;9.848;2023-09-07T12:44:23;4.45;;;2.60;;
40837;SDS011;29632;49.168;9.848;2023-09-07T12:46:49;3.35;;;2.78;;
40837;SDS011;29632;49.168;9.848;2023-09-07T12:49:14;3.10;;;2.47;;
40837;SDS011;29632;49.168;9.848;2023-09-07T12:51:41;3.63;;;2.03;;
40837;SDS011;29632;49.168;9.848;2023-09-07T12:54:07;3.88;;;2.60;;
40837;SDS011;29632;49.168;9.848;2023-09-07T12:56:33;4.38;;;2.70;;
40837;SDS011;29632;49.168;9.848;2023-09-07T12:58:59;3.53;;;2.60;;
40837;SDS011;29632;49.168;9.848;2023-09-07T13:01:25;3.88;;;2.50;;
40837;SDS011;29632;49.168;9.848;2023-09-07T13:03:51;3.83;;;2.50;;
40837;SDS011;29632;49.168;9.848;2023-09-07T13:06:17;3.90;;;2.20;;
40837;SDS011;29632;49.168;9.848;2023-09-07T13:08:44;4.97;;;2.40;;
40837;SDS011;29632;49.168;9.848;2023-09-07T13:11:10;3.97;;;2.33;;
40837;SDS011;29632;49.168;9.848;2023-09-07T13:13:36;3.38;;;2.75;;
40837;SDS011;29632;49.168;9.848;2023-09-07T13:16:03;4.47;;;2.72;;
40837;SDS011;29632;49.168;9.848;2023-09-07T13:18:29;2.92;;;2.15;;
40837;SDS011;29632;49.168;9.848;2023-09-07T13:20:56;9.60;;;2.92;;
40837;SDS011;29632;49.168;9.848;2023-09-07T13:23:33;5.82;;;2.60;;
40837;SDS011;29632;49.168;9.848;2023-09-07T13:25:59;6.47;;;2.60;;
40837;SDS011;29632;49.168;9.848;2023-09-07T13:28:26;4.18;;;2.70;;
40837;SDS011;29632;49.168;9.848;2023-09-07T13:30:52;2.70;;;2.13;;
40837;SDS011;29632;49.168;9.848;2023-09-07T13:33:18;4.50;;;2.80;;
40837;SDS011;29632;49.168;9.848;2023-09-07T13:35:44;3.40;;;2.50;;
40837;SDS011;29632;49.168;9.848;2023-09-07T13:38:10;3.45;;;2.63;;
40837;SDS011;29632;49.168;9.848;2023-09-07T13:40:36;3.20;;;2.35;;
40837;SDS011;29632;49.168;9.848;2023-09-07T13:43:02;5.35;;;2.80;;
40837;SDS011;29632;49.168;9.848;2023-09-07T13:45:28;4.03;;;2.42;;
40837;SDS011;29632;49.168;9.848;2023-09-07T13:47:54;3.65;;;2.40;;
40837;SDS011;29632;49.168;9.848;2023-09-07T13:50:21;3.17;;;2.30;;
40837;SDS011;29632;49.168;9.848;2023-09-07T13:52:47;3.67;;;2.25;;
40837;SDS011;29632;49.168;9.848;2023-09-07T13:55:14;5.10;;;2.33;;
40837;SDS011;29632;49.168;9.848;2023-09-07T13:57:40;4.65;;;2.35;;
40837;SDS011;29632;49.168;9.848;2023-09-07T14:00:06;3.50;;;2.53;;
40837;SDS011;29632;49.168;9.848;2023-09-07T14:02:32;4.57;;;2.58;;
40837;SDS011;29632;49.168;9.848;2023-09-07T14:04:58;4.63;;;2.40;;
40837;SDS011;29632;49.168;9.848;2023-09-07T14:07:24;5.20;;;2.33;;
40837;SDS011;29632;49.168;9.848;2023-09-07T14:09:51;4.25;;;2.90;;
40837;SDS011;29632;49.168;9.848;2023-09-07T14:12:18;8.65;;;2.85;;
40837;SDS011;29632;49.168;9.848;2023-09-07T14:14:44;3.03;;;2.47;;
40837;SDS011;29632;49.168;9.848;2023-09-07T14:17:10;4.65;;;2.63;;
40837;SDS011;29632;49.168;9.848;2023-09-07T14:19:36;4.10;;;2.28;;
40837;SDS011;29632;49.168;9.848;2023-09-07T14:22:02;4.97;;;3.00;;
40837;SDS011;29632;49.168;9.848;2023-09-07T14:24:27;5.90;;;2.40;;
40837;SDS011;29632;49.168;9.848;2023-09-07T14:26:53;3.25;;;2.28;;
40837;SDS011;29632;49.168;9.848;2023-09-07T14:29:19;4.93;;;2.72;;
40837;SDS011;29632;49.168;9.848;2023-09-07T14:31:45;3.83;;;2.50;;
40837;SDS011;29632;49.168;9.848;2023-09-07T14:34:11;4.72;;;2.90;;
40837;SDS011;29632;49.168;9.848;2023-09-07T14:36:38;3.25;;;2.42;;
40837;SDS011;29632;49.168;9.848;2023-09-07T14:39:05;4.15;;;2.50;;
40837;SDS011;29632;49.168;9.848;2023-09-07T14:41:32;11.32;;;3.05;;
40837;SDS011;29632;49.168;9.848;2023-09-07T14:43:59;4.38;;;2.97;;
40837;SDS011;29632;49.168;9.848;2023-09-07T14:46:25;3.88;;;2.45;;
40837;SDS011;29632;49.168;9.848;2023-09-07T14:48:51;6.70;;;2.67;;
40837;SDS011;29632;49.168;9.848;2023-09-07T14:51:17;4.70;;;2.55;;